Time;durP1;ratioP1;P1;durP2;ratioP2;P2;SDS_P1;SDS_P2;PMS_P1;PMS_P2;Temp;Humidity;BMP_temperature;BMP_pressure;BME280_temperature;BME280_humidity;BME280_pressure;Samples;Min_cycle;Max_cycle;Signal;HPM_P1;HPM_P2
2021/01/03 00:01:29;;;;;;;39.40;25.23;;;5.40;1.00;;;;;;4932788;29;20240;-64
2021/01/03 00:03:54;;;;;;;38.00;24.90;;;5.40;1.00;;;;;;4933262;29;20661;-63
2021/01/03 00:06:20;;;;;;;36.23;24.13;;;5.40;1.00;;;;;;4932962;29;20267;-64
2021/01/03 00:08:45;;;;;;;38.23;25.60;;;5.30;1.00;;;;;;4933091;29;20199;-64
2021/01/03 00:11:11;;;;;;;43.30;25.93;;;5.20;1.00;;;;;;4933005;29;20586;-63
2021/01/03 00:13:37;;;;;;;42.33;27.17;;;5.10;1.00;;;;;;4932294;29;20206;-63
2021/01/03 00:16:03;;;;;;;40.23;25.53;;;5.10;1.00;;;;;;4933237;29;20187;-63
2021/01/03 00:18:29;;;;;;;44.80;26.60;;;5.20;1.00;;;;;;4932634;29;20183;-64
2021/01/03 00:20:54;;;;;;;44.47;26.10;;;5.20;1.00;;;;;;4932196;29;20443;-61
2021/01/03 00:23:20;;;;;;;49.30;27.30;;;5.20;1.00;;;;;;4932153;29;20202;-62
2021/01/03 00:25:46;;;;;;;42.97;26.90;;;5.20;1.00;;;;;;4931698;29;20195;-64
2021/01/03 00:28:12;;;;;;;47.57;27.07;;;5.20;1.00;;;;;;4931828;29;20569;-64
2021/01/03 00:30:37;;;;;;;44.40;28.17;;;5.20;1.00;;;;;;4932907;29;20230;-64
2021/01/03 00:33:03;;;;;;;41.30;24.67;;;5.20;1.00;;;;;;4931883;29;20514;-65
2021/01/03 00:35:32;;;;;;;42.27;25.97;;;5.30;1.00;;;;;;4931327;29;20176;-62
2021/01/03 00:38:04;;;;;;;40.07;25.70;;;5.30;1.00;;;;;;4931561;29;20797;-62
2021/01/03 00:40:30;;;;;;;42.63;27.77;;;5.30;1.00;;;;;;4931835;29;20447;-63
2021/01/03 00:42:56;;;;;;;38.50;24.50;;;5.30;1.00;;;;;;4931613;29;21154;-62
2021/01/03 00:45:22;;;;;;;44.37;25.30;;;5.40;1.00;;;;;;4932804;29;20578;-64
2021/01/03 00:47:48;;;;;;;38.70;26.37;;;5.50;1.00;;;;;;4934294;29;20439;-63
2021/01/03 00:50:15;;;;;;;41.80;26.30;;;5.50;1.00;;;;;;4936355;29;20531;-61
2021/01/03 00:52:40;;;;;;;39.30;23.93;;;5.40;1.00;;;;;;4934922;29;20218;-63
2021/01/03 00:55:07;;;;;;;43.63;26.83;;;5.40;1.00;;;;;;4935233;29;20444;-63
2021/01/03 00:57:33;;;;;;;42.23;25.57;;;5.40;1.00;;;;;;4935252;29;20965;-63
2021/01/03 00:59:59;;;;;;;41.17;23.67;;;5.40;1.00;;;;;;4930084;29;20448;-63
2021/01/03 01:02:25;;;;;;;37.77;26.20;;;5.40;1.00;;;;;;4935186;29;20275;-62
2021/01/03 01:04:50;;;;;;;38.27;25.63;;;5.40;1.00;;;;;;4934643;29;20538;-64
2021/01/03 01:07:16;;;;;;;40.17;24.57;;;5.50;1.00;;;;;;4936605;29;20499;-63
2021/01/03 01:09:41;;;;;;;40.70;24.03;;;5.50;1.00;;;;;;4934567;29;20188;-64
2021/01/03 01:12:07;;;;;;;42.97;25.63;;;5.40;1.00;;;;;;4930494;29;20315;-63
2021/01/03 01:14:33;;;;;;;43.20;26.50;;;5.30;1.00;;;;;;4936263;29;20204;-63
2021/01/03 01:16:59;;;;;;;38.20;24.60;;;5.20;1.00;;;;;;4934491;29;20439;-63
2021/01/03 01:19:24;;;;;;;43.40;24.63;;;5.20;1.00;;;;;;4930959;29;20436;-65
2021/01/03 01:21:50;;;;;;;38.63;25.27;;;5.20;1.00;;;;;;4933570;29;20614;-63
2021/01/03 01:24:16;;;;;;;45.50;26.60;;;5.20;1.00;;;;;;4933539;29;20192;-64
2021/01/03 01:26:41;;;;;;;40.73;27.60;;;5.00;1.00;;;;;;4935615;29;20231;-63
2021/01/03 01:29:07;;;;;;;42.30;26.07;;;4.90;1.00;;;;;;4935888;29;20617;-62
2021/01/03 01:31:32;;;;;;;38.87;25.37;;;6.50;1.00;;;;;;4935812;29;20213;-64
2021/01/03 01:33:58;;;;;;;39.00;25.37;;;4.80;1.00;;;;;;4934195;29;20188;-64
2021/01/03 01:36:24;;;;;;;44.20;27.60;;;4.90;1.00;;;;;;4935919;29;20208;-63
2021/01/03 01:38:50;;;;;;;39.33;25.93;;;4.90;1.00;;;;;;4933376;29;20518;-62
2021/01/03 01:41:15;;;;;;;38.37;24.77;;;4.90;1.00;;;;;;4934220;29;20601;-64
2021/01/03 01:43:41;;;;;;;45.60;26.60;;;4.80;1.00;;;;;;4931324;29;20196;-63
2021/01/03 01:46:11;;;;;;;48.00;27.90;;;4.80;1.00;;;;;;4933985;29;20253;-64
2021/01/03 01:48:42;;;;;;;44.10;26.83;;;4.80;1.00;;;;;;4932961;29;20227;-63
2021/01/03 01:51:20;;;;;;;44.07;29.30;;;4.70;1.00;;;;;;4931328;29;20498;-63
2021/01/03 01:54:09;;;;;;;42.00;27.13;;;4.70;1.00;;;;;;4934394;29;20906;-61
2021/01/03 01:56:44;;;;;;;50.10;28.57;;;4.70;1.00;;;;;;4934182;29;20471;-64
2021/01/03 01:59:48;;;;;;;42.97;27.23;;;4.80;1.00;;;;;;4935249;29;20489;-64
2021/01/03 02:02:22;;;;;;;49.77;28.67;;;4.80;1.00;;;;;;4935221;29;20439;-64
2021/01/03 02:05:29;;;;;;;51.50;29.20;;;4.80;1.00;;;;;;4934640;29;20455;-64
2021/01/03 02:08:01;;;;;;;47.87;27.90;;;4.80;1.00;;;;;;4921928;29;20451;-65
2021/01/03 02:10:40;;;;;;;50.93;28.50;;;4.90;1.00;;;;;;4931763;29;20466;-65
2021/01/03 02:13:40;;;;;;;50.13;29.00;;;4.90;1.00;;;;;;4931017;29;20829;-64
2021/01/03 02:16:16;;;;;;;42.43;25.83;;;4.90;1.00;;;;;;4931391;29;20841;-64
2021/01/03 02:18:44;;;;;;;44.23;28.50;;;5.00;1.00;;;;;;4935059;29;20476;-66
2021/01/03 02:21:21;;;;;;;45.73;28.83;;;4.90;1.00;;;;;;4934780;29;20495;-64
2021/01/03 02:24:16;;;;;;;45.67;28.13;;;5.00;1.00;;;;;;4935088;29;20522;-65
2021/01/03 02:26:47;;;;;;;41.33;25.33;;;4.90;1.00;;;;;;4934544;29;20793;-65
2021/01/03 02:29:17;;;;;;;48.63;30.80;;;4.90;1.00;;;;;;4933689;29;20475;-65
2021/01/03 02:31:50;;;;;;;46.50;29.50;;;4.80;1.00;;;;;;4933742;29;20474;-63
2021/01/03 02:34:25;;;;;;;48.97;29.20;;;4.90;1.00;;;;;;4933843;29;20444;-66
2021/01/03 02:36:58;;;;;;;52.00;28.77;;;4.90;1.00;;;;;;4934350;29;20505;-65
2021/01/03 02:39:41;;;;;;;44.90;28.43;;;5.00;1.00;;;;;;4932446;29;20458;-66
2021/01/03 02:42:21;;;;;;;42.70;27.73;;;5.00;1.00;;;;;;4934915;29;20490;-63
2021/01/03 02:44:47;;;;;;;53.20;31.13;;;4.90;1.00;;;;;;4934489;29;20443;-65
2021/01/03 02:47:13;;;;;;;48.47;29.30;;;4.90;1.00;;;;;;4934164;29;20801;-64
2021/01/03 02:49:39;;;;;;;45.47;28.60;;;4.90;1.00;;;;;;4934556;29;20286;-64
2021/01/03 02:52:13;;;;;;;48.60;28.00;;;4.80;1.00;;;;;;4934412;29;20470;-63
2021/01/03 02:54:38;;;;;;;45.90;27.70;;;4.80;1.00;;;;;;4933784;29;20444;-63
2021/01/03 02:57:05;;;;;;;46.77;27.50;;;4.90;1.00;;;;;;4933937;29;20454;-64
2021/01/03 02:59:30;;;;;;;48.20;29.10;;;4.80;1.00;;;;;;4934708;29;20235;-63
2021/01/03 03:01:56;;;;;;;45.00;25.70;;;4.80;1.00;;;;;;4934496;29;20476;-64
2021/01/03 03:04:21;;;;;;;43.90;27.37;;;4.80;1.00;;;;;;4932855;29;20195;-65
2021/01/03 03:06:47;;;;;;;48.33;27.70;;;4.80;1.00;;;;;;4934392;29;20192;-66
2021/01/03 03:09:13;;;;;;;44.97;27.33;;;4.80;1.00;;;;;;4934479;29;20284;-63
2021/01/03 03:11:38;;;;;;;45.07;26.90;;;4.80;1.00;;;;;;4933102;29;20225;-64
2021/01/03 03:14:04;;;;;;;49.30;27.90;;;4.70;1.00;;;;;;4934292;29;20516;-64
2021/01/03 03:16:29;;;;;;;44.80;28.23;;;4.80;1.00;;;;;;4934095;29;20180;-65
2021/01/03 03:18:55;;;;;;;42.43;28.67;;;4.80;1.00;;;;;;4934406;29;20242;-63
2021/01/03 03:21:21;;;;;;;43.43;27.50;;;4.90;1.00;;;;;;4934074;29;20191;-64
2021/01/03 03:23:47;;;;;;;49.43;28.50;;;4.90;1.00;;;;;;4934032;29;20609;-63
2021/01/03 03:26:13;;;;;;;45.87;28.40;;;4.90;1.00;;;;;;4934115;29;20180;-63
2021/01/03 03:28:39;;;;;;;44.07;27.00;;;4.90;1.00;;;;;;4933881;29;20955;-62
2021/01/03 03:31:05;;;;;;;47.83;29.23;;;4.80;1.00;;;;;;4933576;29;20516;-62
2021/01/03 03:33:31;;;;;;;42.20;27.30;;;4.80;1.00;;;;;;4932784;29;20712;-63
2021/01/03 03:35:56;;;;;;;43.77;27.30;;;4.90;1.00;;;;;;4933790;29;20527;-63
2021/01/03 03:38:22;;;;;;;51.57;27.20;;;4.80;1.00;;;;;;4933626;29;20192;-62
2021/01/03 03:40:48;;;;;;;50.97;30.47;;;4.80;1.00;;;;;;4932618;29;20190;-64
2021/01/03 03:43:13;;;;;;;46.57;28.57;;;4.80;1.00;;;;;;4933916;29;20188;-65
2021/01/03 03:45:39;;;;;;;42.90;27.37;;;4.80;1.00;;;;;;4933791;29;20302;-64
2021/01/03 03:48:05;;;;;;;54.53;31.07;;;4.70;1.00;;;;;;4933870;29;20266;-64
2021/01/03 03:50:31;;;;;;;44.47;29.23;;;4.70;1.00;;;;;;4933656;29;20187;-65
2021/01/03 03:52:57;;;;;;;47.93;31.20;;;4.70;1.00;;;;;;4933628;29;20470;-64
2021/01/03 03:55:22;;;;;;;50.43;28.60;;;4.70;1.00;;;;;;4933688;29;20451;-63
2021/01/03 03:57:48;;;;;;;45.80;29.43;;;4.70;1.00;;;;;;4932129;29;20239;-64
2021/01/03 04:00:21;;;;;;;48.70;29.57;;;4.80;1.00;;;;;;4933211;29;20271;-63
2021/01/03 04:02:47;;;;;;;48.80;30.50;;;4.80;1.00;;;;;;4933364;29;20220;-64
2021/01/03 04:05:17;;;;;;;43.83;28.10;;;4.70;1.00;;;;;;4932299;29;20968;-64
2021/01/03 04:07:42;;;;;;;50.67;30.20;;;4.70;1.00;;;;;;4933366;29;21001;-63
2021/01/03 04:10:09;;;;;;;48.73;29.23;;;4.70;1.00;;;;;;4933375;29;20594;-64
2021/01/03 04:12:35;;;;;;;49.27;27.17;;;4.60;1.00;;;;;;4932974;29;20255;-63
2021/01/03 04:15:05;;;;;;;42.70;26.10;;;4.70;1.00;;;;;;4933291;29;20439;-63
2021/01/03 04:17:30;;;;;;;44.83;28.60;;;4.70;1.00;;;;;;4933263;29;20522;-65
2021/01/03 04:19:56;;;;;;;44.10;27.80;;;4.70;1.00;;;;;;4932831;29;20529;-62
2021/01/03 04:22:21;;;;;;;43.30;28.70;;;4.70;1.00;;;;;;4932504;29;20650;-64
2021/01/03 04:24:47;;;;;;;48.60;29.93;;;4.70;1.00;;;;;;4931859;29;20236;-64
2021/01/03 04:27:13;;;;;;;45.80;30.57;;;4.70;1.00;;;;;;4933062;29;20609;-64
2021/01/03 04:29:38;;;;;;;48.87;29.37;;;4.70;1.00;;;;;;4932826;29;20614;-65
2021/01/03 04:32:07;;;;;;;45.77;28.77;;;4.70;1.00;;;;;;4932961;29;20215;-67
2021/01/03 04:34:36;;;;;;;43.73;28.90;;;4.60;1.00;;;;;;4933349;29;20194;-68
2021/01/03 04:37:01;;;;;;;47.77;31.37;;;4.70;1.00;;;;;;4933000;29;20446;-65
2021/01/03 04:39:28;;;;;;;52.60;30.40;;;4.70;1.00;;;;;;4933213;29;20450;-68
2021/01/03 04:42:07;;;;;;;46.90;28.10;;;4.50;1.00;;;;;;4930472;29;20499;-67
2021/01/03 04:44:43;;;;;;;49.80;34.60;;;4.70;1.00;;;;;;4933286;29;20442;-65
2021/01/03 04:47:34;;;;;;;47.83;29.10;;;4.60;1.00;;;;;;4933330;29;20443;-67
2021/01/03 04:50:15;;;;;;;44.77;29.87;;;4.70;1.00;;;;;;4932142;29;20447;-67
2021/01/03 04:53:10;;;;;;;45.77;30.13;;;4.70;1.00;;;;;;4932728;29;20517;-66
2021/01/03 04:55:42;;;;;;;45.13;28.70;;;4.70;1.00;;;;;;4913871;29;20448;-63
2021/01/03 04:58:14;;;;;;;38.10;27.20;;;4.70;1.00;;;;;;4932995;29;20515;-65
2021/01/03 05:01:04;;;;;;;47.17;29.03;;;4.60;1.00;;;;;;4932855;29;20443;-65
2021/01/03 05:03:45;;;;;;;48.07;28.03;;;4.60;1.00;;;;;;4922168;29;20440;-63
2021/01/03 05:06:17;;;;;;;44.67;27.93;;;4.70;1.00;;;;;;4915240;29;20804;-64
2021/01/03 05:08:57;;;;;;;47.23;29.40;;;4.70;1.00;;;;;;4913830;29;20539;-65
2021/01/03 05:11:36;;;;;;;42.70;28.43;;;4.70;1.00;;;;;;4932616;29;20467;-64
2021/01/03 05:14:22;;;;;;;45.23;27.10;;;4.70;1.00;;;;;;4932567;29;20932;-63
2021/01/03 05:16:56;;;;;;;46.13;28.30;;;4.70;1.00;;;;;;4931619;29;20451;-63
2021/01/03 05:19:22;;;;;;;43.67;28.77;;;4.70;1.00;;;;;;4931437;29;20980;-65
2021/01/03 05:21:51;;;;;;;50.07;28.53;;;4.70;1.00;;;;;;4932883;29;20443;-64
2021/01/03 05:24:17;;;;;;;45.93;29.60;;;4.70;1.00;;;;;;4932760;29;20586;-65
2021/01/03 05:26:43;;;;;;;50.10;30.37;;;4.70;1.00;;;;;;4932868;29;20440;-64
2021/01/03 05:29:19;;;;;;;42.17;28.23;;;4.80;1.00;;;;;;4932471;29;20451;-62
2021/01/03 05:31:56;;;;;;;40.03;29.17;;;4.80;1.00;;;;;;4932738;29;20474;-63
2021/01/03 05:34:40;;;;;;;50.27;28.07;;;4.70;1.00;;;;;;4935045;29;20439;-64
2021/01/03 05:37:19;;;;;;;45.00;27.73;;;4.70;1.00;;;;;;4936056;29;20441;-63
2021/01/03 05:39:46;;;;;;;46.20;29.53;;;4.70;1.00;;;;;;4936322;29;20517;-64
2021/01/03 05:42:21;;;;;;;40.87;29.17;;;4.60;1.00;;;;;;4933591;29;20471;-63
2021/01/03 05:44:55;;;;;;;46.17;29.00;;;4.60;1.00;;;;;;4936184;29;20526;-64
2021/01/03 05:47:38;;;;;;;47.30;28.60;;;4.70;1.00;;;;;;4936185;29;20479;-62
2021/01/03 05:50:16;;;;;;;48.63;29.27;;;4.60;1.00;;;;;;4934960;29;20458;-62
2021/01/03 05:53:04;;;;;;;47.37;29.53;;;4.60;1.00;;;;;;4935722;29;20474;-63
2021/01/03 05:55:30;;;;;;;46.83;29.87;;;4.60;1.00;;;;;;4935985;29;20444;-63
2021/01/03 05:58:34;;;;;;;46.87;28.80;;;4.50;1.00;;;;;;4935767;29;20439;-65
2021/01/03 06:01:24;;;;;;;49.93;28.93;;;4.60;1.00;;;;;;4935030;29;20442;-64
2021/01/03 06:04:06;;;;;;;47.90;27.87;;;4.60;1.00;;;;;;4935782;29;20447;-64
2021/01/03 06:06:46;;;;;;;51.20;30.23;;;4.60;1.00;;;;;;4935651;29;20443;-65
2021/01/03 06:09:12;;;;;;;43.87;28.13;;;4.70;1.00;;;;;;4934136;29;21198;-64
2021/01/03 06:11:38;;;;;;;42.70;26.47;;;4.70;1.00;;;;;;4934874;29;20484;-65
2021/01/03 06:14:04;;;;;;;44.20;28.53;;;4.70;1.00;;;;;;4935467;29;20909;-63
2021/01/03 06:16:35;;;;;;;44.47;29.13;;;4.70;1.00;;;;;;4935234;29;20472;-64
2021/01/03 06:19:24;;;;;;;45.30;28.10;;;4.70;1.00;;;;;;4935237;29;20677;-65
2021/01/03 06:21:53;;;;;;;39.47;26.37;;;4.70;1.00;;;;;;4928863;29;20440;-64
2021/01/03 06:24:26;;;;;;;44.07;29.07;;;4.70;1.00;;;;;;4934259;29;20447;-68
2021/01/03 06:27:00;;;;;;;43.10;28.27;;;4.60;1.00;;;;;;4935469;29;20448;-62
2021/01/03 06:29:31;;;;;;;46.90;27.77;;;4.50;1.00;;;;;;4935105;29;20515;-63
2021/01/03 06:32:05;;;;;;;40.47;26.10;;;4.60;1.00;;;;;;4935337;29;20746;-64
2021/01/03 06:35:09;;;;;;;39.10;26.70;;;4.70;1.00;;;;;;4934795;29;20912;-63
2021/01/03 06:37:48;;;;;;;41.87;26.20;;;4.60;1.00;;;;;;4913912;29;20515;-64
2021/01/03 06:40:40;;;;;;;42.80;26.90;;;4.70;1.00;;;;;;4933725;29;20486;-66
2021/01/03 06:43:29;;;;;;;36.70;24.50;;;4.70;1.00;;;;;;4934149;29;20798;-65
2021/01/03 06:46:11;;;;;;;39.00;25.77;;;4.60;1.00;;;;;;4934037;29;21035;-64
2021/01/03 06:49:15;;;;;;;41.43;23.73;;;4.70;1.00;;;;;;4933201;29;20446;-65
2021/01/03 06:52:18;;;;;;;36.00;23.83;;;4.80;1.00;;;;;;4933403;29;20687;-64
2021/01/03 06:54:57;;;;;;;39.60;24.77;;;5.80;1.00;;;;;;4934509;29;20801;-65
2021/01/03 06:57:41;;;;;;;33.10;22.90;;;4.50;1.00;;;;;;4934838;29;20767;-66
2021/01/03 07:00:23;;;;;;;32.63;21.37;;;4.50;1.00;;;;;;4934468;29;20950;-65
2021/01/03 07:02:55;;;;;;;44.40;25.10;;;4.60;1.00;;;;;;4933852;29;20976;-65
2021/01/03 07:05:21;;;;;;;37.60;23.57;;;4.60;1.00;;;;;;4934606;29;20444;-64
2021/01/03 07:08:15;;;;;;;35.47;22.97;;;4.60;1.00;;;;;;4934291;29;20447;-65
2021/01/03 07:10:42;;;;;;;34.07;23.03;;;4.60;1.00;;;;;;4934425;29;20194;-66
2021/01/03 07:13:27;;;;;;;32.70;23.50;;;4.50;1.00;;;;;;4932788;29;20996;-64
2021/01/03 07:15:54;;;;;;;37.17;23.23;;;4.50;1.00;;;;;;4934071;29;20833;-66
2021/01/03 07:18:50;;;;;;;38.20;24.20;;;5.80;1.00;;;;;;4934088;29;20444;-66
2021/01/03 07:21:20;;;;;;;38.67;22.70;;;4.50;1.00;;;;;;4932963;29;20492;-62
2021/01/03 07:23:49;;;;;;;33.93;21.70;;;4.50;1.00;;;;;;4934123;29;20440;-63
2021/01/03 07:26:28;;;;;;;31.00;21.33;;;4.60;1.00;;;;;;4934101;29;20467;-64
2021/01/03 07:29:14;;;;;;;31.33;21.03;;;4.50;1.00;;;;;;4933856;29;20439;-64
2021/01/03 07:31:59;;;;;;;32.30;21.30;;;4.60;1.00;;;;;;4933904;29;20464;-66
2021/01/03 07:34:30;;;;;;;31.60;19.27;;;4.50;1.00;;;;;;4933488;29;20443;-64
2021/01/03 07:37:19;;;;;;;35.93;21.90;;;4.50;1.00;;;;;;4933398;29;20462;-66
2021/01/03 07:40:13;;;;;;;30.20;20.27;;;4.50;1.00;;;;;;4933648;29;20447;-64
2021/01/03 07:42:45;;;;;;;26.30;20.40;;;4.60;1.00;;;;;;4933251;29;20450;-65
2021/01/03 07:45:13;;;;;;;27.83;19.83;;;4.50;1.00;;;;;;4932583;29;20452;-64
2021/01/03 07:47:51;;;;;;;30.20;21.20;;;4.50;1.00;;;;;;4932054;29;20949;-63
2021/01/03 07:50:26;;;;;;;33.60;19.90;;;4.50;1.00;;;;;;4933668;29;20450;-65
2021/01/03 07:52:57;;;;;;;28.00;19.50;;;4.50;1.00;;;;;;4932340;29;20479;-63
2021/01/03 07:55:23;;;;;;;29.13;19.30;;;4.50;1.00;;;;;;4933424;29;20442;-64
2021/01/03 07:57:58;;;;;;;29.80;21.00;;;4.50;1.00;;;;;;4933201;29;20767;-64
2021/01/03 08:00:26;;;;;;;29.07;19.33;;;4.50;1.00;;;;;;4933389;29;20183;-63
2021/01/03 08:03:01;;;;;;;29.53;19.53;;;4.60;1.00;;;;;;4933642;29;20514;-65
2021/01/03 08:05:29;;;;;;;30.23;18.33;;;4.50;1.00;;;;;;4931465;29;20538;-64
2021/01/03 08:08:21;;;;;;;29.97;20.27;;;4.50;1.00;;;;;;4932957;29;20478;-66
2021/01/03 08:10:49;;;;;;;32.80;20.60;;;4.60;1.00;;;;;;4932973;29;20451;-64
2021/01/03 08:13:28;;;;;;;31.97;19.37;;;4.60;1.00;;;;;;4931601;29;20927;-65
2021/01/03 08:15:59;;;;;;;29.00;19.40;;;4.70;1.00;;;;;;4933280;29;20510;-67
2021/01/03 08:18:27;;;;;;;26.40;19.00;;;4.70;1.00;;;;;;4931952;29;20451;-69
2021/01/03 08:21:03;;;;;;;31.40;20.30;;;4.70;1.00;;;;;;4930893;29;20444;-67
2021/01/03 08:23:32;;;;;;;30.67;20.27;;;4.50;1.00;;;;;;4931604;29;20446;-67
2021/01/03 08:26:12;;;;;;;30.30;19.30;;;4.80;1.00;;;;;;4933146;29;20942;-70
2021/01/03 08:28:56;;;;;;;27.40;17.73;;;4.80;1.00;;;;;;4931940;29;20448;-68
2021/01/03 08:31:22;;;;;;;30.40;21.37;;;4.80;1.00;;;;;;4931935;29;20439;-67
2021/01/03 08:33:51;;;;;;;30.87;20.23;;;4.80;1.00;;;;;;4933075;29;21734;-63
2021/01/03 08:36:27;;;;;;;31.37;19.67;;;3.00;1.00;;;;;;4933040;29;20176;-64
2021/01/03 08:39:00;;;;;;;28.50;19.13;;;4.90;1.00;;;;;;4933054;29;20545;-66
2021/01/03 08:41:29;;;;;;;24.43;17.10;;;4.90;1.00;;;;;;4931773;29;20941;-65
2021/01/03 08:43:57;;;;;;;30.43;19.00;;;4.80;1.00;;;;;;4932107;29;20530;-65
2021/01/03 08:46:28;;;;;;;27.53;17.87;;;4.80;1.00;;;;;;4932867;29;20448;-65
2021/01/03 08:49:08;;;;;;;30.60;19.47;;;4.70;1.00;;;;;;4932725;29;20942;-63
2021/01/03 08:51:35;;;;;;;23.83;17.03;;;4.80;1.00;;;;;;4932797;29;20443;-68
2021/01/03 08:54:06;;;;;;;25.77;17.77;;;4.80;1.00;;;;;;4933536;29;20444;-66
2021/01/03 08:56:35;;;;;;;28.10;18.97;;;4.90;1.00;;;;;;4932903;29;20458;-66
2021/01/03 08:59:02;;;;;;;27.80;18.97;;;4.80;1.00;;;;;;4932304;29;20452;-66
2021/01/03 09:01:33;;;;;;;25.80;18.30;;;4.80;1.00;;;;;;4932422;29;20530;-64
2021/01/03 09:04:12;;;;;;;28.60;18.20;;;4.80;1.00;;;;;;4931189;29;20952;-66
2021/01/03 09:06:39;;;;;;;24.67;18.10;;;5.00;1.00;;;;;;4931481;29;20455;-66
2021/01/03 09:09:16;;;;;;;27.33;18.03;;;4.90;1.00;;;;;;4934335;29;20439;-66
2021/01/03 09:11:59;;;;;;;27.13;17.50;;;4.90;1.00;;;;;;4936409;29;20528;-65
2021/01/03 09:14:27;;;;;;;28.33;19.40;;;4.90;1.00;;;;;;4936371;29;20474;-66
2021/01/03 09:16:55;;;;;;;28.10;19.10;;;4.80;1.00;;;;;;4936235;29;21014;-67
2021/01/03 09:19:47;;;;;;;25.27;18.53;;;5.00;1.00;;;;;;4935306;29;20527;-64
2021/01/03 09:22:23;;;;;;;24.17;17.23;;;5.10;1.00;;;;;;4936141;29;20499;-65
2021/01/03 09:25:05;;;;;;;22.57;17.10;;;5.00;1.00;;;;;;4935269;29;20450;-63
2021/01/03 09:27:33;;;;;;;26.07;18.33;;;5.00;1.00;;;;;;4935901;29;20501;-65
2021/01/03 09:30:17;;;;;;;23.40;18.00;;;5.10;1.00;;;;;;4933745;29;20467;-65
2021/01/03 09:32:45;;;;;;;21.83;15.70;;;5.10;1.00;;;;;;4935829;29;20699;-64
2021/01/03 09:35:47;;;;;;;23.27;17.40;;;5.10;1.00;;;;;;4932621;29;20536;-64
2021/01/03 09:38:25;;;;;;;28.00;18.20;;;5.10;1.00;;;;;;4935905;29;20530;-64
2021/01/03 09:41:22;;;;;;;21.87;16.73;;;5.10;1.00;;;;;;4935621;29;20933;-67
2021/01/03 09:44:26;;;;;;;26.50;18.63;;;5.10;1.00;;;;;;4935277;29;20475;-63
2021/01/03 09:47:08;;;;;;;26.70;18.33;;;5.20;1.00;;;;;;4935585;29;20435;-65
2021/01/03 09:49:37;;;;;;;30.67;19.17;;;5.20;1.00;;;;;;4934681;29;20442;-64
2021/01/03 09:52:02;;;;;;;25.80;18.67;;;5.20;1.00;;;;;;4935452;29;20464;-66
2021/01/03 09:54:57;;;;;;;24.10;18.43;;;5.20;1.00;;;;;;4935731;29;20960;-69
2021/01/03 09:57:41;;;;;;;25.50;18.00;;;5.20;1.00;;;;;;4935148;29;20654;-69
2021/01/03 10:00:18;;;;;;;28.70;20.83;;;5.00;1.00;;;;;;4935547;29;20431;-67
2021/01/03 10:02:44;;;;;;;21.60;17.70;;;5.10;1.00;;;;;;4917739;29;20444;-65
2021/01/03 10:05:31;;;;;;;27.50;19.30;;;5.10;1.00;;;;;;4916496;29;20528;-68
2021/01/03 10:08:04;;;;;;;31.50;18.97;;;5.20;1.00;;;;;;4935487;29;20274;-68
2021/01/03 10:10:55;;;;;;;26.10;18.63;;;5.10;1.00;;;;;;4934968;29;21060;-69
2021/01/03 10:13:23;;;;;;;24.87;18.60;;;5.20;1.00;;;;;;4934906;29;21000;-66
2021/01/03 10:15:51;;;;;;;23.73;17.97;;;5.30;1.00;;;;;;4934662;29;21000;-67
2021/01/03 10:18:29;;;;;;;28.40;19.10;;;5.20;1.00;;;;;;4935091;29;20471;-68
2021/01/03 10:20:55;;;;;;;29.90;19.50;;;5.40;1.00;;;;;;4934910;29;20442;-67
2021/01/03 10:23:34;;;;;;;26.27;19.67;;;5.50;1.00;;;;;;4935137;29;20542;-68
2021/01/03 10:26:03;;;;;;;28.23;20.90;;;5.40;1.00;;;;;;4916505;29;20452;-65
2021/01/03 10:28:28;;;;;;;30.00;18.57;;;5.40;1.00;;;;;;4914712;29;20949;-67
2021/01/03 10:30:54;;;;;;;27.43;21.83;;;5.30;1.00;;;;;;4915932;29;20449;-67
2021/01/03 10:33:19;;;;;;;28.80;20.40;;;5.30;1.00;;;;;;4915825;29;20686;-65
2021/01/03 10:35:45;;;;;;;25.50;18.43;;;5.50;1.00;;;;;;4916980;29;20228;-65
2021/01/03 10:38:11;;;;;;;24.70;18.20;;;5.50;1.00;;;;;;4933687;29;20194;-64
2021/01/03 10:40:37;;;;;;;22.10;17.67;;;5.50;1.00;;;;;;4934650;29;20191;-66
2021/01/03 10:43:03;;;;;;;26.20;18.90;;;5.50;1.00;;;;;;4934540;29;20684;-65
2021/01/03 10:45:28;;;;;;;23.57;15.90;;;5.50;1.00;;;;;;4932909;29;20188;-66
2021/01/03 10:47:54;;;;;;;28.63;20.57;;;5.50;1.00;;;;;;4933888;29;20842;-66
2021/01/03 10:50:21;;;;;;;28.23;20.40;;;5.40;1.00;;;;;;4931594;29;20196;-65
2021/01/03 10:52:47;;;;;;;26.43;19.30;;;5.30;1.00;;;;;;4933739;29;20208;-63
2021/01/03 10:55:14;;;;;;;26.17;21.20;;;5.20;1.00;;;;;;4934473;29;20534;-64
2021/01/03 10:57:40;;;;;;;25.67;19.33;;;5.30;1.00;;;;;;4934523;29;20444;-62
2021/01/03 11:00:09;;;;;;;28.27;18.70;;;5.20;1.00;;;;;;4932872;29;20479;-64
2021/01/03 11:02:35;;;;;;;23.40;19.50;;;5.10;1.00;;;;;;4934247;29;20642;-64
2021/01/03 11:05:01;;;;;;;32.37;20.33;;;5.20;1.00;;;;;;4934371;29;20505;-65
2021/01/03 11:07:27;;;;;;;28.00;19.60;;;5.20;1.00;;;;;;4933694;29;20187;-64
2021/01/03 11:09:53;;;;;;;26.67;19.17;;;5.40;1.00;;;;;;4933744;29;20975;-66
2021/01/03 11:12:19;;;;;;;24.73;20.17;;;5.40;1.00;;;;;;4932704;29;20219;-64
2021/01/03 11:14:45;;;;;;;30.80;21.63;;;5.40;1.00;;;;;;4933389;29;20192;-64
2021/01/03 11:17:14;;;;;;;27.50;21.63;;;5.50;1.00;;;;;;4932399;29;20455;-65
2021/01/03 11:19:40;;;;;;;30.40;22.53;;;;;;;;;;4934362;29;20462;-65
2021/01/03 11:22:09;;;;;;;27.43;21.40;;;5.50;1.00;;;;;;4933659;29;20447;-63
2021/01/03 11:24:36;;;;;;;27.80;21.67;;;5.50;1.00;;;;;;4933391;29;20956;-66
2021/01/03 11:27:04;;;;;;;31.00;21.00;;;5.60;1.00;;;;;;4933587;29;20839;-64
2021/01/03 11:29:30;;;;;;;32.57;21.60;;;7.00;1.00;;;;;;4916817;29;20535;-65
2021/01/03 11:31:59;;;;;;;31.50;21.37;;;5.50;1.00;;;;;;4933369;29;20988;-65
2021/01/03 11:34:28;;;;;;;32.50;21.27;;;5.50;1.00;;;;;;4933755;29;20988;-65
2021/01/03 11:36:57;;;;;;;25.80;20.10;;;5.50;1.00;;;;;;4933768;29;20475;-64
2021/01/03 11:39:24;;;;;;;32.10;21.13;;;5.50;1.00;;;;;;4933576;29;20455;-66
2021/01/03 11:41:52;;;;;;;26.63;22.20;;;5.50;1.00;;;;;;4932267;29;20506;-67
2021/01/03 11:44:20;;;;;;;31.63;22.47;;;5.50;1.00;;;;;;4945820;28;20436;-65
2021/01/03 11:46:47;;;;;;;29.97;23.33;;;5.50;1.00;;;;;;4921965;29;20451;-66
2021/01/03 11:49:13;;;;;;;31.03;21.63;;;5.40;1.00;;;;;;4933580;29;20440;-64
2021/01/03 11:51:38;;;;;;;27.53;20.70;;;5.40;1.00;;;;;;4933298;29;20455;-66
2021/01/03 11:54:05;;;;;;;27.90;22.00;;;5.40;1.00;;;;;;4932435;29;20195;-67
2021/01/03 11:56:31;;;;;;;33.10;22.50;;;5.50;1.00;;;;;;4933682;29;20177;-65
2021/01/03 11:58:57;;;;;;;32.87;24.20;;;5.60;1.00;;;;;;4933160;29;20963;-65
2021/01/03 12:01:24;;;;;;;34.43;24.90;;;6.30;1.00;;;;;;4933321;29;20841;-67
2021/01/03 12:03:50;;;;;;;33.20;24.17;;;5.80;1.00;;;;;;4932704;29;20490;-66
2021/01/03 12:06:21;;;;;;;33.20;23.60;;;6.00;1.00;;;;;;4933098;29;20455;-66
2021/01/03 12:08:47;;;;;;;32.83;24.23;;;6.00;1.00;;;;;;4931985;29;20444;-64
2021/01/03 12:11:18;;;;;;;32.70;24.20;;;5.90;1.00;;;;;;4933036;29;20490;-64
2021/01/03 12:13:52;;;;;;;44.87;30.13;;;5.90;1.00;;;;;;4933681;29;20571;-59
2021/01/03 12:16:20;;;;;;;33.67;25.10;;;5.90;1.00;;;;;;4928347;29;20732;-63
2021/01/03 12:18:46;;;;;;;30.30;22.83;;;5.80;1.00;;;;;;4931320;29;20457;-63
2021/01/03 12:21:26;;;;;;;30.27;24.17;;;5.90;1.00;;;;;;4931861;29;20861;-63
2021/01/03 12:23:52;;;;;;;33.17;24.10;;;5.70;1.00;;;;;;4929328;29;20976;-64
2021/01/03 12:26:18;;;;;;;32.40;24.30;;;5.60;1.00;;;;;;4931453;29;20447;-64
2021/01/03 12:28:45;;;;;;;42.93;26.63;;;5.50;1.00;;;;;;4931918;29;20259;-63
2021/01/03 12:31:10;;;;;;;35.17;25.13;;;5.60;1.00;;;;;;4931311;29;20507;-64
2021/01/03 12:33:36;;;;;;;32.43;22.87;;;5.50;1.00;;;;;;4931032;29;20479;-63
2021/01/03 12:36:02;;;;;;;34.03;22.93;;;5.50;1.00;;;;;;4930949;29;20280;-63
2021/01/03 12:38:28;;;;;;;34.37;24.20;;;5.60;1.00;;;;;;4930732;29;20180;-63
2021/01/03 12:40:54;;;;;;;37.07;24.00;;;5.60;1.00;;;;;;4931063;29;20440;-63
2021/01/03 12:43:20;;;;;;;31.87;24.03;;;5.70;1.00;;;;;;4930554;29;20663;-64
2021/01/03 12:45:45;;;;;;;35.13;24.57;;;5.70;1.00;;;;;;4934582;29;20444;-64
2021/01/03 12:48:11;;;;;;;27.83;21.83;;;5.70;1.00;;;;;;4932841;29;20242;-63
2021/01/03 12:50:36;;;;;;;35.03;24.83;;;5.70;1.00;;;;;;4934996;29;20661;-64
2021/01/03 12:53:02;;;;;;;34.17;22.67;;;5.60;1.00;;;;;;4936072;29;20267;-63
2021/01/03 12:55:28;;;;;;;37.80;23.33;;;5.50;1.00;;;;;;4934244;29;20195;-64
2021/01/03 12:57:53;;;;;;;34.10;22.77;;;5.50;1.00;;;;;;4935855;29;20200;-63
2021/01/03 13:00:19;;;;;;;32.27;23.63;;;5.50;1.00;;;;;;4934632;29;20196;-64
2021/01/03 13:02:45;;;;;;;31.50;23.27;;;5.40;1.00;;;;;;4936120;29;20216;-62
2021/01/03 13:05:11;;;;;;;40.10;25.93;;;5.40;1.00;;;;;;4934199;29;20450;-63
2021/01/03 13:07:36;;;;;;;35.20;24.77;;;5.50;1.00;;;;;;4936180;29;20200;-62
2021/01/03 13:10:03;;;;;;;32.87;23.30;;;5.50;1.00;;;;;;4936239;29;20447;-63
2021/01/03 13:12:29;;;;;;;29.47;22.53;;;5.60;1.00;;;;;;4935328;29;20228;-63